createdAt,value
2018-09-15T00:01:54.911Z,99.90
2018-09-15T00:07:24.591Z,99.90
2018-09-15T00:10:20.876Z,99.90
2018-09-15T00:19:06.752Z,99.90
2018-09-15T00:21:36.532Z,99.90
2018-09-15T00:24:08.469Z,99.90
2018-09-15T00:45:25.227Z,99.90
2018-09-15T00:48:08.267Z,99.90
2018-09-15T00:55:54.825Z,99.90
2018-09-15T00:58:23.739Z,99.90
2018-09-15T01:01:05.974Z,99.90
2018-09-15T01:03:57.286Z,99.90
2018-09-15T01:09:24.532Z,99.90
2018-09-15T01:15:03.347Z,99.90
2018-09-15T01:18:39.747Z,99.90
2018-09-15T01:21:25.384Z,99.90
2018-09-15T01:24:00.091Z,99.90
2018-09-15T01:29:37.770Z,99.90
2018-09-15T01:32:28.202Z,99.90
2018-09-15T01:35:03.483Z,99.90
2018-09-15T01:37:37.442Z,99.90
2018-09-15T01:40:13.755Z,99.90
2018-09-15T01:45:53.620Z,99.90
2018-09-15T01:51:24.187Z,99.90
2018-09-15T01:54:02.787Z,99.90
2018-09-15T01:59:25.127Z,99.90
2018-09-15T02:02:39.665Z,99.90
2018-09-15T02:08:14.045Z,99.90
2018-09-15T02:10:46.467Z,99.90
2018-09-15T02:37:56.914Z,99.90
2018-09-15T02:40:28.790Z,99.90
2018-09-15T02:45:46.246Z,99.90
2018-09-15T02:48:18.840Z,99.90
2018-09-15T02:50:51.384Z,99.90
2018-09-15T02:56:21.536Z,99.90
2018-09-15T03:01:42.339Z,99.90
2018-09-15T03:04:11.367Z,99.90
2018-09-15T03:12:34.941Z,99.90
2018-09-15T03:15:15.039Z,99.90
2018-09-15T03:20:42.712Z,99.90
2018-09-15T03:23:14.326Z,99.90
2018-09-15T03:39:03.304Z,99.90
2018-09-15T03:41:35.132Z,99.90
2018-09-15T03:49:52.780Z,99.90
2018-09-15T03:52:24.051Z,99.90
2018-09-15T03:54:53.815Z,99.90
2018-09-15T04:00:27.881Z,99.90
2018-09-15T04:03:34.583Z,99.90
2018-09-15T04:06:03.889Z,99.90
2018-09-15T04:08:55.861Z,99.90
2018-09-15T04:14:53.870Z,99.90
2018-09-15T04:20:22.336Z,99.90
2018-09-15T04:22:51.251Z,99.90
2018-09-15T04:25:20.798Z,99.90
2018-09-15T04:28:00.015Z,99.90
2018-09-15T04:30:35.418Z,99.90
2018-09-15T04:33:22.053Z,99.90
2018-09-15T04:36:55.682Z,99.90
2018-09-15T04:40:29.018Z,99.90
2018-09-15T04:46:16.257Z,99.90
2018-09-15T04:49:27.824Z,99.90
2018-09-15T04:55:42.089Z,99.90
2018-09-15T04:58:12.016Z,99.90
2018-09-15T05:00:48.359Z,99.90
2018-09-15T05:03:28.012Z,99.90
2018-09-15T05:06:03.032Z,99.90
2018-09-15T05:08:48.436Z,99.90
2018-09-15T05:14:12.589Z,99.90
2018-09-15T05:16:50.215Z,99.90
2018-09-15T05:57:01.524Z,99.90
2018-09-15T05:59:52.063Z,99.90
2018-09-15T06:02:33.366Z,99.90
2018-09-15T06:08:12.088Z,99.90
2018-09-15T06:10:54.289Z,99.90
2018-09-15T06:13:26.304Z,99.90
2018-09-15T06:15:55.161Z,99.90
2018-09-15T06:26:16.337Z,99.90
2018-09-15T06:29:10.011Z,99.90
2018-09-15T06:31:49.970Z,99.90
2018-09-15T06:34:52.274Z,99.90
2018-09-15T06:51:09.335Z,99.90
2018-09-15T06:53:50.633Z,99.90
2018-09-15T06:59:39.722Z,99.90
2018-09-15T07:02:08.802Z,99.90
2018-09-15T07:04:37.538Z,99.90
2018-09-15T07:07:21.574Z,99.90
2018-09-15T07:09:51.548Z,99.90
2018-09-15T07:12:36.198Z,99.90
2018-09-15T07:18:00.083Z,99.90
2018-09-15T07:20:28.890Z,99.90
2018-09-15T07:23:02.255Z,99.90
2018-09-15T07:25:52.866Z,99.90
2018-09-15T07:31:16.061Z,99.90
2018-09-15T07:33:54.118Z,99.90
2018-09-15T07:36:24.299Z,99.90
2018-09-15T07:38:55.537Z,99.90
2018-09-15T07:41:28.050Z,99.90
2018-09-15T07:44:03.323Z,99.90
2018-09-15T07:46:33.862Z,99.90
2018-09-15T07:49:20.559Z,99.90
2018-09-15T07:51:50.637Z,99.90
2018-09-15T07:54:24.898Z,99.90
2018-09-15T08:03:06.978Z,99.90
2018-09-15T08:08:52.203Z,99.90
2018-09-15T08:11:25.074Z,99.90
2018-09-15T08:14:10.298Z,99.90
2018-09-15T08:20:52.153Z,99.90
2018-09-15T08:26:03.432Z,99.90
2018-09-15T08:28:42.038Z,99.90
2018-09-15T08:31:15.276Z,99.90
2018-09-15T08:33:51.792Z,99.90
2018-09-15T08:42:28.832Z,99.90
2018-09-15T08:44:58.367Z,99.90
2018-09-15T08:47:33.367Z,99.90
2018-09-15T08:50:08.804Z,99.90
2018-09-15T08:55:57.389Z,99.90
2018-09-15T09:01:26.575Z,99.90
2018-09-15T09:04:08.816Z,99.90
2018-09-15T09:06:43.530Z,99.90
2018-09-15T09:12:25.130Z,99.90
2018-09-15T09:15:08.998Z,99.90
2018-09-15T09:17:38.611Z,99.90
2018-09-15T09:20:07.979Z,99.90
2018-09-15T09:22:37.410Z,99.90
2018-09-15T09:31:38.337Z,98.50
2018-09-15T09:34:07.235Z,99.10
2018-09-15T09:36:36.652Z,99.10
2018-09-15T09:39:09.189Z,99.50
2018-09-15T09:41:38.374Z,99.90
2018-09-15T09:44:07.211Z,99.30
2018-09-15T09:49:41.235Z,96.50
2018-09-15T09:52:26.833Z,97.40
2018-09-15T09:55:05.496Z,98.20
2018-09-15T09:57:51.985Z,97.80
2018-09-15T10:00:26.017Z,97.20
2018-09-15T10:02:54.874Z,97.40
2018-09-15T10:10:15.055Z,96.70
2018-09-15T10:12:46.911Z,98.40
2018-09-15T10:15:16.576Z,99.30
2018-09-15T10:17:49.910Z,98.60
2018-09-15T10:20:18.930Z,97.90
2018-09-15T10:22:49.401Z,97.80
2018-09-15T10:25:18.091Z,98.10
2018-09-15T10:27:50.842Z,98.20
2018-09-15T10:30:22.894Z,98.10
2018-09-15T10:32:53.985Z,98.10
2018-09-15T10:35:31.734Z,98.90
2018-09-15T10:38:08.044Z,97.90
2018-09-15T10:40:44.865Z,98.40
2018-09-15T10:43:13.966Z,98.20
2018-09-15T10:45:42.634Z,99.20
2018-09-15T10:48:12.073Z,98.20
2018-09-15T10:54:49.623Z,96.70
2018-09-15T11:02:43.632Z,96.10
2018-09-15T11:05:13.797Z,97.50
2018-09-15T11:07:44.762Z,97.90
2018-09-15T11:13:19.168Z,97.90
2018-09-15T11:15:51.681Z,98.20
2018-09-15T11:18:32.139Z,97.70
2018-09-15T11:21:01.850Z,97.90
2018-09-15T11:23:31.915Z,96.10
2018-09-15T11:26:02.090Z,96.70
2018-09-15T11:28:32.534Z,97.30
2018-09-15T11:31:01.379Z,97.40
2018-09-15T11:37:22.709Z,97.50
2018-09-15T11:40:03.848Z,98.10
2018-09-15T11:42:33.717Z,98.60
2018-09-15T11:45:05.559Z,98.30
2018-09-15T11:47:37.848Z,96.90
2018-09-15T11:50:10.007Z,97.60
2018-09-15T11:52:38.644Z,97.20
2018-09-15T11:55:07.636Z,96.90
2018-09-15T11:57:37.048Z,96.90
2018-09-15T12:00:13.757Z,97.40
2018-09-15T12:02:49.400Z,96.40
2018-09-15T12:05:18.124Z,96.40
2018-09-15T12:07:47.323Z,96.30
2018-09-15T12:10:16.067Z,96.60
2018-09-15T12:12:46.484Z,96.10
2018-09-15T12:18:12.191Z,95.10
2018-09-15T12:20:49.149Z,95.10
2018-09-15T12:23:18.895Z,96.10
2018-09-15T12:25:48.100Z,94.90
2018-09-15T12:31:46.009Z,94.40
2018-09-15T12:34:14.731Z,94.40
2018-09-15T12:36:44.078Z,95.00
2018-09-15T12:39:12.959Z,94.80
2018-09-15T12:41:41.719Z,95.20
2018-09-15T12:44:10.779Z,94.40
2018-09-15T12:46:41.716Z,94.40
2018-09-15T12:49:11.027Z,94.10
2018-09-15T12:51:40.296Z,93.00
2018-09-15T13:18:11.729Z,92.70
2018-09-15T13:20:41.889Z,91.10
2018-09-15T13:23:10.294Z,89.00
2018-09-15T13:25:41.244Z,89.60
2018-09-15T13:28:09.702Z,88.70
2018-09-15T13:30:38.765Z,85.60
2018-09-15T13:33:07.434Z,86.90
2018-09-15T13:35:35.987Z,87.20
2018-09-15T13:38:04.735Z,85.10
2018-09-15T13:40:43.649Z,86.60
2018-09-15T13:43:12.330Z,85.10
2018-09-15T13:45:40.735Z,83.10
2018-09-15T13:48:09.111Z,85.10
2018-09-15T13:50:37.672Z,85.60
2018-09-15T13:55:47.923Z,83.90
2018-09-15T13:58:16.309Z,84.10
2018-09-15T14:00:47.469Z,83.80
2018-09-15T14:03:16.061Z,84.10
2018-09-15T14:05:45.134Z,82.70
2018-09-15T14:08:19.402Z,82.40
2018-09-15T14:10:47.852Z,84.10
2018-09-15T14:13:16.264Z,82.50
2018-09-15T14:16:48.044Z,78.60
2018-09-15T14:40:06.430Z,80.50
2018-09-15T14:42:35.286Z,81.80
2018-09-15T14:45:03.942Z,79.90
2018-09-15T14:47:36.611Z,83.20
2018-09-15T14:50:05.131Z,85.00
2018-09-15T14:52:37.870Z,84.80
2018-09-15T14:55:12.115Z,86.00
2018-09-15T14:57:41.638Z,87.40
2018-09-15T15:00:10.338Z,87.20
2018-09-15T15:02:38.856Z,85.90
2018-09-15T15:05:09.452Z,86.70
2018-09-15T15:07:38.005Z,87.40
2018-09-15T15:10:09.339Z,89.70
2018-09-15T15:12:40.507Z,88.60
2018-09-15T15:15:09.685Z,89.50
2018-09-15T15:17:39.207Z,89.70
2018-09-15T15:20:07.757Z,89.70
2018-09-15T15:22:36.817Z,88.60
2018-09-15T15:25:07.606Z,89.50
2018-09-15T15:27:41.667Z,90.00
2018-09-15T15:30:10.315Z,90.00
2018-09-15T15:32:39.327Z,89.70
2018-09-15T15:35:12.510Z,89.10
2018-09-15T15:37:41.555Z,89.50
2018-09-15T15:40:11.924Z,90.60
2018-09-15T15:42:40.754Z,90.70
2018-09-15T15:48:01.641Z,90.80
2018-09-15T15:50:31.785Z,91.30
2018-09-15T15:53:02.417Z,92.10
2018-09-15T15:55:34.522Z,92.20
2018-09-15T15:58:03.347Z,92.50
2018-09-15T16:00:35.175Z,92.40
2018-09-15T16:05:53.596Z,92.80
2018-09-15T16:08:22.346Z,92.70
2018-09-15T16:13:40.848Z,92.90
2018-09-15T16:16:09.707Z,93.10
2018-09-15T16:18:47.602Z,93.80
2018-09-15T16:21:16.894Z,94.10
2018-09-15T16:23:45.570Z,94.50
2018-09-15T16:26:14.159Z,94.30
2018-09-15T16:28:42.802Z,94.40
2018-09-15T16:31:11.208Z,94.30
2018-09-15T16:33:40.054Z,93.60
2018-09-15T16:36:08.989Z,93.80
2018-09-15T16:38:37.679Z,94.20
2018-09-15T16:41:09.112Z,94.20
2018-09-15T16:43:37.818Z,94.20
2018-09-15T16:46:06.690Z,93.70
2018-09-15T16:48:35.199Z,93.60
2018-09-15T16:51:06.646Z,94.10
2018-09-15T16:53:35.157Z,94.60
2018-09-15T16:56:03.924Z,94.70
2018-09-15T16:58:34.082Z,94.90
2018-09-15T17:01:02.783Z,95.50
2018-09-15T17:03:31.367Z,95.30
2018-09-15T17:06:01.134Z,95.90
2018-09-15T17:08:44.524Z,95.10
2018-09-15T17:11:14.627Z,95.10
2018-09-15T17:13:44.958Z,95.30
2018-09-15T17:16:20.802Z,95.30
2018-09-15T17:35:32.150Z,96.80
2018-09-15T17:38:02.093Z,97.00
2018-09-15T17:40:30.867Z,97.50
2018-09-15T17:42:59.833Z,97.80
2018-09-15T17:45:28.444Z,98.50
2018-09-15T17:47:57.113Z,98.20
2018-09-15T17:50:32.022Z,98.00
2018-09-15T17:53:04.736Z,98.00
2018-09-15T17:55:36.808Z,98.80
2018-09-15T17:58:06.461Z,99.20
2018-09-15T18:00:35.421Z,98.60
2018-09-15T18:03:10.167Z,99.00
2018-09-15T18:05:39.638Z,98.90
2018-09-15T18:08:08.667Z,99.90
2018-09-15T18:48:06.866Z,99.70
2018-09-15T18:50:47.435Z,99.90
2018-09-15T18:57:54.146Z,99.90
2018-09-15T19:03:46.696Z,99.90
2018-09-15T19:10:14.075Z,99.90
2018-09-15T19:15:39.254Z,99.90
2018-09-15T19:21:19.398Z,99.90
2018-09-15T19:27:40.678Z,99.90
2018-09-15T19:34:26.331Z,99.90
2018-09-15T19:43:42.918Z,99.90
2018-09-15T19:46:31.270Z,99.90
2018-09-15T19:49:10.054Z,99.90
2018-09-15T19:52:09.973Z,99.90
2018-09-15T19:54:41.967Z,99.90
2018-09-15T20:00:28.409Z,99.90
2018-09-15T20:03:00.900Z,99.90
2018-09-15T20:05:33.043Z,99.90
2018-09-15T20:11:02.725Z,99.90
2018-09-15T20:13:37.644Z,99.90
2018-09-15T20:16:05.312Z,99.90
2018-09-15T20:26:35.800Z,99.90
2018-09-15T20:29:10.559Z,99.90
2018-09-15T20:31:53.294Z,99.90
2018-09-15T20:34:33.399Z,99.90
2018-09-15T20:40:20.630Z,99.90
2018-09-15T20:45:45.948Z,99.90
2018-09-15T20:48:21.092Z,99.90
2018-09-15T20:51:12.910Z,99.90
2018-09-15T20:54:02.772Z,99.90
2018-09-15T20:56:32.550Z,99.90
2018-09-15T20:59:03.158Z,99.90
2018-09-15T21:01:32.167Z,99.90
2018-09-15T21:04:01.089Z,99.90
2018-09-15T21:06:54.473Z,99.90
2018-09-15T21:09:48.929Z,99.90
2018-09-15T21:12:18.136Z,99.90
2018-09-15T21:15:03.104Z,99.90
2018-09-15T21:17:39.595Z,99.90
2018-09-15T21:23:13.519Z,99.90
2018-09-15T21:25:43.751Z,99.90
2018-09-15T21:28:12.616Z,99.90
2018-09-15T21:30:42.593Z,99.90
2018-09-15T21:33:16.289Z,99.90
2018-09-15T21:35:44.999Z,99.90
2018-09-15T21:38:18.203Z,99.90
2018-09-15T21:40:47.026Z,99.90
2018-09-15T21:43:15.635Z,99.90
2018-09-15T21:48:22.707Z,99.90
2018-09-15T21:51:23.011Z,99.90
2018-09-15T21:54:05.963Z,99.90
2018-09-15T21:56:40.795Z,99.90
2018-09-15T22:02:12.934Z,99.90
2018-09-15T22:07:48.822Z,99.90
2018-09-15T22:10:27.740Z,99.90
2018-09-15T22:13:19.389Z,99.90
2018-09-15T22:15:53.552Z,99.90
2018-09-15T22:18:23.424Z,99.90
2018-09-15T22:20:53.035Z,99.90
2018-09-15T22:29:49.175Z,99.90
2018-09-15T22:32:52.744Z,99.90
2018-09-15T22:35:21.974Z,99.90
2018-09-15T22:37:52.713Z,99.90
2018-09-15T22:43:08.035Z,99.90
2018-09-15T22:48:20.285Z,99.90
2018-09-15T22:51:04.134Z,99.90
2018-09-15T22:53:48.962Z,99.90
2018-09-15T22:56:20.512Z,99.90
2018-09-15T23:17:05.259Z,99.90
2018-09-15T23:19:35.985Z,99.90
2018-09-15T23:25:14.828Z,99.90
2018-09-15T23:27:55.827Z,99.90
2018-09-15T23:31:40.156Z,99.90
2018-09-15T23:34:52.146Z,99.90
2018-09-15T23:37:23.761Z,99.90
2018-09-15T23:39:54.070Z,99.90
2018-09-15T23:42:28.099Z,99.90
2018-09-15T23:47:50.643Z,99.90
2018-09-15T23:50:24.300Z,99.90
2018-09-15T23:52:53.960Z,99.90
